Terminal Aerodrome Forecast
Issued by NWS Quad Cities IA IL

Home | Current Version | Previous Version | Text Only | Print | Product List | Glossary On
Versions: 1 2 3 4 5 6 7 8 9 10 11 12 13 14 15 16 17 18 19
000
FTUS43 KDVN 011100
TAFDBQ
TAF
KDBQ 011138Z 0112/0212 16006KT P6SM SKC
     FM011500 18012KT P6SM SCT200
     FM011700 18020G30KT P6SM SCT200
     FM020300 19016G24KT P6SM BKN150
     FM020600 19015G22KT 6SM -SHRA VCTS BKN030CB=

USA.gov is the U.S. government's official web portal to all federal, state and local government web resources and services.